Time;durP1;ratioP1;P1;durP2;ratioP2;P2;SDS_P1;SDS_P2;PMS_P1;PMS_P2;Temp;Humidity;BMP_temperature;BMP_pressure;BME280_temperature;BME280_humidity;BME280_pressure;Samples;Min_cycle;Max_cycle;Signal;HPM_P1;HPM_P2
2022/06/12 00:00:57;;;;;;;;;;;13.90;1.00;;;;;;5134700;27;20021;-80
2022/06/12 00:03:25;;;;;;;;;;;13.90;10.70;;;;;;5145907;27;20005;-82
2022/06/12 00:05:53;;;;;;;;;;;14.00;13.60;;;;;;5135040;27;19998;-80
2022/06/12 00:08:19;;;;;;;;;;;14.00;10.30;;;;;;5153792;27;19920;-80
2022/06/12 00:10:46;;;;;;;;;;;14.00;16.10;;;;;;5141483;27;19926;-80
2022/06/12 00:13:12;;;;;;;;;;;14.00;17.20;;;;;;5146749;27;19923;-80
2022/06/12 00:15:38;;;;;;;;;;;14.00;18.70;;;;;;5117878;27;20256;-81
2022/06/12 00:18:03;;;;;;;;;;;14.00;33.20;;;;;;5116327;27;20005;-80
2022/06/12 00:20:29;;;;;;;;;;;13.90;5.70;;;;;;5144277;27;20010;-80
2022/06/12 00:22:55;;;;;;;;;;;13.90;56.70;;;;;;5133053;27;19959;-81
2022/06/12 00:25:22;;;;;;;;;;;13.90;88.80;;;;;;5142737;27;19954;-80
2022/06/12 00:27:48;;;;;;;;;;;13.80;49.40;;;;;;5142727;27;19927;-79
2022/06/12 00:30:15;;;;;;;;;;;14.00;73.30;;;;;;5153814;27;19919;-79
2022/06/12 00:32:41;;;;;;;;;;;13.80;95.10;;;;;;5141474;27;20411;-79
2022/06/12 00:35:07;;;;;;;;;;;13.80;70.10;;;;;;5145725;27;19920;-78
2022/06/12 00:37:33;;;;;;;;;;;13.70;41.90;;;;;;5116116;27;20274;-79
2022/06/12 00:39:59;;;;;;;;;;;13.70;99.70;;;;;;5153562;27;20480;-80
2022/06/12 00:42:27;;;;;;;;;;;13.70;84.30;;;;;;5112779;27;19955;-84
2022/06/12 00:44:53;;;;;;;;;;;13.60;41.40;;;;;;5133335;27;19964;-80
2022/06/12 00:47:19;;;;;;;;;;;13.60;64.50;;;;;;5133629;27;19963;-79
2022/06/12 00:49:48;;;;;;;;;;;13.50;35.50;;;;;;5122833;27;19961;-79
2022/06/12 00:52:20;;;;;;;;;;;13.40;19.80;;;;;;5137492;27;19927;-80
2022/06/12 00:54:47;;;;;;;;;;;13.30;7.30;;;;;;5100028;27;19922;-79
2022/06/12 00:57:13;;;;;;;;;;;13.30;1.00;;;;;;5147747;27;19919;-79
2022/06/12 00:59:47;;;;;;;;;;;14.50;1.00;;;;;;5133512;27;20366;-82
2022/06/12 01:02:17;;;;;;;;;;;13.20;44.70;;;;;;5148310;27;20302;-79
2022/06/12 01:07:37;;;;;;;;;;;13.20;97.70;;;;;;5147982;27;19984;-80
2022/06/12 01:10:04;;;;;;;;;;;13.20;55.20;;;;;;5119615;27;19930;-80
2022/06/12 01:12:43;;;;;;;;;;;13.20;44.10;;;;;;5134845;27;19919;-80
2022/06/12 01:15:11;;;;;;;;;;;13.20;75.70;;;;;;5146903;27;20016;-81
2022/06/12 01:17:37;;;;;;;;;;;13.30;99.90;;;;;;5136022;27;19919;-80
2022/06/12 01:20:08;;;;;;;;;;;13.30;99.40;;;;;;5133181;27;19924;-79
2022/06/12 01:22:36;;;;;;;;;;;13.20;83.20;;;;;;5133372;27;20366;-81
2022/06/12 01:25:37;;;;;;;;;;;13.30;99.90;;;;;;5140874;27;19933;-80
2022/06/12 01:28:03;;;;;;;;;;;13.30;99.90;;;;;;5049653;28;19924;-79
2022/06/12 01:30:28;;;;;;;;;;;13.40;99.90;;;;;;5094523;27;20286;-79
2022/06/12 01:33:03;;;;;;;;;;;13.40;99.90;;;;;;5148209;27;19944;-84
2022/06/12 01:35:35;;;;;;;;;;;13.40;99.90;;;;;;5137931;27;19919;-79
2022/06/12 01:38:19;;;;;;;;;;;13.40;99.90;;;;;;5140152;27;19925;-80
2022/06/12 01:40:55;;;;;;;;;;;13.50;99.90;;;;;;5140153;27;20260;-84
2022/06/12 01:43:43;;;;;;;;;;;13.50;99.90;;;;;;5120816;27;19926;-80
2022/06/12 01:46:28;;;;;;;;;;;13.40;99.90;;;;;;5132201;27;19918;-79
2022/06/12 01:49:05;;;;;;;;;;;13.50;99.90;;;;;;5134606;27;19942;-79
2022/06/12 01:51:50;;;;;;;;;;;13.40;99.90;;;;;;5133373;27;19920;-80
2022/06/12 01:54:32;;;;;;;;;;;13.40;99.90;;;;;;5135374;27;19927;-79
2022/06/12 01:57:00;;;;;;;;;;;13.40;99.90;;;;;;5141113;27;20059;-79
2022/06/12 01:59:26;;;;;;;;;;;13.30;99.90;;;;;;5147369;27;20311;-79
2022/06/12 02:02:06;;;;;;;;;;;13.20;99.90;;;;;;5134449;27;19927;-86
2022/06/12 02:04:38;;;;;;;;;;;13.20;99.90;;;;;;5141493;27;19926;-79
2022/06/12 02:07:27;;;;;;;;;;;13.20;99.90;;;;;;5150133;27;20002;-78
2022/06/12 02:09:59;;;;;;;;;;;13.20;99.90;;;;;;5146301;27;19976;-78
2022/06/12 02:15:22;;;;;;;;;;;13.30;99.90;;;;;;5121052;27;20370;-79
2022/06/12 02:18:01;;;;;;;;;;;13.30;99.90;;;;;;5150980;27;19927;-79
2022/06/12 02:20:29;;;;;;;;;;;13.30;99.90;;;;;;5132556;27;19919;-79
2022/06/12 02:22:56;;;;;;;;;;;13.20;99.90;;;;;;5132636;27;20103;-79
2022/06/12 02:25:25;;;;;;;;;;;13.20;99.90;;;;;;5145837;27;20372;-79
2022/06/12 02:27:53;;;;;;;;;;;13.20;99.90;;;;;;5130715;27;19935;-79
2022/06/12 02:30:27;;;;;;;;;;;13.20;99.90;;;;;;5126086;27;19926;-80
2022/06/12 02:32:57;;;;;;;;;;;13.20;99.90;;;;;;5126457;27;20412;-79
2022/06/12 02:35:27;;;;;;;;;;;13.10;99.90;;;;;;5153933;27;20255;-79
2022/06/12 02:38:04;;;;;;;;;;;13.00;99.90;;;;;;5154868;27;20019;-79
2022/06/12 02:40:35;;;;;;;;;;;13.00;99.90;;;;;;5146248;27;20274;-79
2022/06/12 02:43:05;;;;;;;;;;;13.00;99.90;;;;;;5129545;27;19985;-79
2022/06/12 02:45:33;;;;;;;;;;;12.90;99.90;;;;;;5156827;27;19926;-78
2022/06/12 02:48:00;;;;;;;;;;;14.20;99.90;;;;;;5139027;27;20022;-79
2022/06/12 02:50:27;;;;;;;;;;;12.90;99.90;;;;;;5132131;27;20481;-78
2022/06/12 02:53:09;;;;;;;;;;;12.90;99.90;;;;;;5129903;27;20102;-83
2022/06/12 02:55:44;;;;;;;;;;;12.90;99.90;;;;;;5116108;27;19963;-78
2022/06/12 02:58:22;;;;;;;;;;;12.90;99.90;;;;;;5117717;27;19927;-79
2022/06/12 03:00:53;;;;;;;;;;;13.00;99.90;;;;;;5124817;27;19923;-79
2022/06/12 03:03:34;;;;;;;;;;;13.00;99.90;;;;;;5119918;27;20165;-79
2022/06/12 03:06:01;;;;;;;;;;;12.90;99.90;;;;;;5125813;27;19926;-79
2022/06/12 03:08:30;;;;;;;;;;;13.00;99.90;;;;;;5133763;27;19927;-78
2022/06/12 03:11:14;;;;;;;;;;;12.90;99.90;;;;;;5124448;27;19919;-78
2022/06/12 03:13:40;;;;;;;;;;;12.90;99.90;;;;;;5127939;27;19924;-79
2022/06/12 03:16:11;;;;;;;;;;;12.80;99.90;;;;;;5131094;27;19946;-78
2022/06/12 03:18:39;;;;;;;;;;;12.70;99.90;;;;;;5134376;27;20389;-78
2022/06/12 03:21:07;;;;;;;;;;;12.80;99.90;;;;;;5131108;27;19919;-78
2022/06/12 03:23:45;;;;;;;;;;;12.80;99.90;;;;;;5120753;27;19986;-78
2022/06/12 03:26:15;;;;;;;;;;;12.80;99.90;;;;;;5115523;27;19919;-79
2022/06/12 03:28:48;;;;;;;;;;;13.10;99.90;;;;;;5117044;27;20305;-79
2022/06/12 03:31:20;;;;;;;;;;;12.80;99.90;;;;;;5115330;27;20008;-82
2022/06/12 03:33:50;;;;;;;;;;;12.80;99.90;;;;;;5125562;27;19974;-78
2022/06/12 03:36:16;;;;;;;;;;;12.80;99.90;;;;;;5119290;27;19920;-78
2022/06/12 03:38:57;;;;;;;;;;;12.80;99.90;;;;;;5114400;27;19926;-79
2022/06/12 03:41:27;;;;;;;;;;;12.90;99.90;;;;;;5116014;27;19926;-80
2022/06/12 03:43:59;;;;;;;;;;;12.80;99.90;;;;;;5128155;27;19941;-79
2022/06/12 03:46:30;;;;;;;;;;;12.90;99.90;;;;;;5130393;27;20412;-79
2022/06/12 03:48:59;;;;;;;;;;;12.80;99.90;;;;;;5116944;27;19924;-84
2022/06/12 03:51:33;;;;;;;;;;;12.90;99.90;;;;;;5139150;27;19926;-79
2022/06/12 03:54:09;;;;;;;;;;;12.90;99.90;;;;;;5143859;27;20006;-78
2022/06/12 03:59:25;;;;;;;;;;;12.90;99.90;;;;;;5142470;27;19926;-79
2022/06/12 04:01:51;;;;;;;;;;;12.90;99.90;;;;;;5152949;27;19919;-79
2022/06/12 04:04:18;;;;;;;;;;;12.90;99.90;;;;;;5113882;27;20363;-78
2022/06/12 04:06:45;;;;;;;;;;;12.90;99.90;;;;;;5131952;27;20437;-79
2022/06/12 04:09:21;;;;;;;;;;;13.00;99.90;;;;;;5149077;27;19948;-86
2022/06/12 04:11:56;;;;;;;;;;;13.00;99.90;;;;;;5137605;27;19931;-78
2022/06/12 04:14:24;;;;;;;;;;;13.00;99.90;;;;;;5148328;27;20098;-79
2022/06/12 04:16:51;;;;;;;;;;;13.00;99.90;;;;;;5134190;27;19972;-79
2022/06/12 04:19:21;;;;;;;;;;;13.00;99.90;;;;;;5116883;27;20278;-78
2022/06/12 04:21:56;;;;;;;;;;;13.00;99.90;;;;;;5147791;27;20381;-78
2022/06/12 04:24:36;;;;;;;;;;;13.00;99.90;;;;;;5142588;27;19926;-79
2022/06/12 04:27:14;;;;;;;;;;;13.10;99.90;;;;;;5135278;27;19945;-77
2022/06/12 04:29:48;;;;;;;;;;;13.10;99.90;;;;;;5138324;27;20347;-78
2022/06/12 04:32:14;;;;;;;;;;;13.20;99.90;;;;;;5128843;27;19929;-80
2022/06/12 04:34:40;;;;;;;;;;;13.10;99.90;;;;;;5153955;27;19919;-78
2022/06/12 04:37:09;;;;;;;;;;;13.20;99.90;;;;;;5148363;27;19931;-78
2022/06/12 04:39:35;;;;;;;;;;;13.10;99.90;;;;;;5126085;27;20305;-82
2022/06/12 04:42:01;;;;;;;;;;;13.10;99.90;;;;;;5134099;27;19965;-78
2022/06/12 04:44:27;;;;;;;;;;;13.20;99.90;;;;;;5115977;27;19919;-78
2022/06/12 04:46:54;;;;;;;;;;;13.30;99.90;;;;;;5133825;27;20376;-78
2022/06/12 04:49:21;;;;;;;;;;;13.20;99.90;;;;;;5117874;27;19919;-85
2022/06/12 04:51:47;;;;;;;;;;;13.30;99.90;;;;;;5141456;27;19962;-79
2022/06/12 04:54:13;;;;;;;;;;;13.40;99.90;;;;;;5142420;27;19918;-78
2022/06/12 04:56:39;;;;;;;;;;;13.40;99.90;;;;;;5139701;27;19927;-78
2022/06/12 04:59:05;;;;;;;;;;;13.50;99.90;;;;;;5149605;27;19982;-78
2022/06/12 05:01:32;;;;;;;;;;;13.60;99.90;;;;;;5137675;27;20359;-79
2022/06/12 05:03:59;;;;;;;;;;;13.50;99.90;;;;;;5114999;27;20003;-78
2022/06/12 05:06:25;;;;;;;;;;;13.70;99.90;;;;;;5114518;27;20118;-78
2022/06/12 05:08:51;;;;;;;;;;;13.80;99.90;;;;;;5148615;27;20297;-78
2022/06/12 05:11:17;;;;;;;;;;;13.90;99.90;;;;;;5133418;27;19919;-77
2022/06/12 05:13:43;;;;;;;;;;;13.80;99.90;;;;;;5114396;27;19989;-78
2022/06/12 05:16:11;;;;;;;;;;;13.90;99.90;;;;;;5116775;27;19920;-86
2022/06/12 05:18:37;;;;;;;;;;;13.90;99.90;;;;;;5137112;27;19927;-80
2022/06/12 05:21:03;;;;;;;;;;;14.00;99.90;;;;;;5143573;27;19927;-79
2022/06/12 05:23:29;;;;;;;;;;;14.00;99.90;;;;;;5130620;27;19927;-78
2022/06/12 05:25:54;;;;;;;;;;;14.00;99.90;;;;;;5132684;27;19934;-77
2022/06/12 05:28:20;;;;;;;;;;;14.10;99.90;;;;;;5132494;27;19972;-78
2022/06/12 05:30:46;;;;;;;;;;;14.20;99.90;;;;;;5138961;27;19946;-77
2022/06/12 05:33:12;;;;;;;;;;;14.20;99.90;;;;;;5134177;27;19956;-78
2022/06/12 05:35:38;;;;;;;;;;;14.20;99.90;;;;;;5143396;27;20342;-78
2022/06/12 05:38:05;;;;;;;;;;;14.30;99.90;;;;;;5139338;27;19942;-79
2022/06/12 05:40:36;;;;;;;;;;;14.30;99.90;;;;;;5107033;27;20241;-78
2022/06/12 05:43:02;;;;;;;;;;;14.40;99.90;;;;;;5134170;27;19919;-78
2022/06/12 05:45:28;;;;;;;;;;;14.40;99.90;;;;;;5109681;27;20092;-79
2022/06/12 05:47:56;;;;;;;;;;;14.40;99.90;;;;;;5148048;27;19997;-79
2022/06/12 05:50:24;;;;;;;;;;;14.40;99.90;;;;;;5141659;27;20379;-81
2022/06/12 05:52:49;;;;;;;;;;;14.50;99.90;;;;;;5132719;27;19923;-79
2022/06/12 05:55:16;;;;;;;;;;;14.50;99.90;;;;;;5130378;27;20305;-79
2022/06/12 05:57:41;;;;;;;;;;;14.50;99.90;;;;;;5136765;27;20000;-79
2022/06/12 06:00:10;;;;;;;;;;;14.60;99.90;;;;;;5143613;27;19966;-79
2022/06/12 06:02:38;;;;;;;;;;;14.70;99.90;;;;;;5138330;27;19918;-84
2022/06/12 06:05:05;;;;;;;;;;;14.80;99.90;;;;;;5135691;27;20325;-78
2022/06/12 06:07:31;;;;;;;;;;;14.90;99.90;;;;;;5144370;27;19922;-79
2022/06/12 06:09:57;;;;;;;;;;;15.00;99.90;;;;;;5129963;27;20019;-80
2022/06/12 06:12:23;;;;;;;;;;;15.00;99.90;;;;;;5140032;27;19919;-79
2022/06/12 06:14:48;;;;;;;;;;;15.10;99.90;;;;;;5139570;27;19919;-79
2022/06/12 06:17:14;;;;;;;;;;;15.20;99.90;;;;;;5142698;27;20012;-78
2022/06/12 06:19:39;;;;;;;;;;;15.30;99.90;;;;;;5117728;27;21210;-79
2022/06/12 06:22:05;;;;;;;;;;;15.40;99.90;;;;;;5140080;27;19962;-77
2022/06/12 06:24:30;;;;;;;;;;;15.40;99.90;;;;;;5141954;27;20287;-78
2022/06/12 06:26:56;;;;;;;;;;;15.50;99.90;;;;;;5129667;27;19920;-79
2022/06/12 06:29:22;;;;;;;;;;;15.60;99.90;;;;;;5132492;27;19938;-79
2022/06/12 06:31:47;;;;;;;;;;;15.70;99.90;;;;;;5132834;27;19977;-78
2022/06/12 06:34:13;;;;;;;;;;;15.80;99.90;;;;;;5148470;27;20324;-79
2022/06/12 06:36:39;;;;;;;;;;;15.90;99.90;;;;;;5151380;27;19914;-79
2022/06/12 06:39:04;;;;;;;;;;;15.90;99.90;;;;;;5147342;27;20015;-79
2022/06/12 06:41:30;;;;;;;;;;;16.00;99.90;;;;;;5141978;27;19972;-79
2022/06/12 06:46:40;;;;;;;;;;;16.30;99.90;;;;;;5133608;27;19950;-79
2022/06/12 06:49:06;;;;;;;;;;;16.40;99.90;;;;;;5129035;27;19952;-77
2022/06/12 06:51:32;;;;;;;;;;;16.50;99.90;;;;;;5120933;27;20345;-78
2022/06/12 06:53:58;;;;;;;;;;;16.60;99.90;;;;;;5146808;27;20424;-79
2022/06/12 06:56:24;;;;;;;;;;;16.60;99.90;;;;;;5142226;27;19931;-79
2022/06/12 06:58:50;;;;;;;;;;;16.70;99.90;;;;;;5148068;27;19963;-79
2022/06/12 07:01:15;;;;;;;;;;;16.80;99.90;;;;;;5166879;27;19930;-78
2022/06/12 07:03:41;;;;;;;;;;;16.90;93.80;;;;;;5138740;27;19923;-83
2022/06/12 07:06:09;;;;;;;;;;;17.00;87.10;;;;;;5151541;27;19926;-79
2022/06/12 07:08:34;;;;;;;;;;;17.60;74.00;;;;;;5120428;27;19927;-79
2022/06/12 07:11:00;;;;;;;;;;;19.10;36.80;;;;;;5149847;27;19919;-79
2022/06/12 07:13:26;;;;;;;;;;;20.90;1.00;;;;;;5147347;27;19923;-78
2022/06/12 07:15:51;;;;;;;;;;;22.00;99.90;;;;;;5150438;27;19960;-79
2022/06/12 07:18:18;;;;;;;;;;;22.70;99.90;;;;;;5143073;27;20063;-79
2022/06/12 07:20:47;;;;;;;;;;;23.90;99.90;;;;;;5134729;27;20508;-80
2022/06/12 07:23:14;;;;;;;;;;;24.30;99.90;;;;;;5126964;27;20315;-79
2022/06/12 07:25:43;;;;;;;;;;;25.60;99.90;;;;;;5152032;27;19969;-81
2022/06/12 07:28:09;;;;;;;;;;;26.10;99.90;;;;;;5154583;27;19926;-79
2022/06/12 07:30:35;;;;;;;;;;;26.90;99.90;;;;;;5151526;27;20014;-80
2022/06/12 07:33:01;;;;;;;;;;;27.70;99.90;;;;;;5142987;27;20033;-80
2022/06/12 07:35:26;;;;;;;;;;;28.40;99.90;;;;;;5134693;27;19926;-78
2022/06/12 07:37:52;;;;;;;;;;;28.30;99.90;;;;;;5135550;27;19982;-79
2022/06/12 07:40:22;;;;;;;;;;;27.40;99.90;;;;;;5150186;27;19941;-79
2022/06/12 07:42:47;;;;;;;;;;;28.00;99.90;;;;;;5152057;27;19969;-79
2022/06/12 07:45:13;;;;;;;;;;;27.90;99.90;;;;;;5154074;27;20320;-79
2022/06/12 07:47:39;;;;;;;;;;;28.10;99.90;;;;;;5155701;27;20006;-80
2022/06/12 07:50:05;;;;;;;;;;;28.70;99.90;;;;;;5140072;27;20002;-80
2022/06/12 07:52:31;;;;;;;;;;;29.10;99.90;;;;;;5152816;27;20001;-79
2022/06/12 07:54:57;;;;;;;;;;;29.70;99.90;;;;;;5127009;27;20437;-78
2022/06/12 07:57:23;;;;;;;;;;;28.40;99.90;;;;;;5111797;27;19919;-79
2022/06/12 07:59:48;;;;;;;;;;;27.40;99.90;;;;;;5126567;27;20018;-78
2022/06/12 08:02:14;;;;;;;;;;;28.30;99.90;;;;;;5144873;27;20009;-77
2022/06/12 08:04:40;;;;;;;;;;;27.90;99.90;;;;;;5127967;27;20017;-79
2022/06/12 08:07:05;;;;;;;;;;;28.40;99.90;;;;;;5153278;27;19923;-79
2022/06/12 08:09:31;;;;;;;;;;;28.50;99.90;;;;;;5147642;27;20017;-79
2022/06/12 08:11:57;;;;;;;;;;;28.60;99.90;;;;;;5135038;27;19920;-76
2022/06/12 08:14:23;;;;;;;;;;;27.90;99.90;;;;;;5137955;27;20017;-79
2022/06/12 08:16:49;;;;;;;;;;;28.40;99.90;;;;;;5140904;27;20022;-76
2022/06/12 08:22:01;;;;;;;;;;;29.10;99.90;;;;;;5134935;27;20014;-78
2022/06/12 08:24:26;;;;;;;;;;;30.00;99.90;;;;;;5145520;27;19927;-77
2022/06/12 08:26:52;;;;;;;;;;;30.20;99.90;;;;;;5127934;27;19972;-78
2022/06/12 08:29:17;;;;;;;;;;;30.10;99.90;;;;;;5117497;27;19950;-79
2022/06/12 08:31:45;;;;;;;;;;;30.20;99.90;;;;;;5144939;27;19923;-79
2022/06/12 08:34:34;;;;;;;;;;;30.60;99.90;;;;;;5155733;27;19929;-79
2022/06/12 08:37:01;;;;;;;;;;;30.30;99.90;;;;;;5107766;27;19927;-75
2022/06/12 08:39:28;;;;;;;;;;;30.00;99.90;;;;;;5153975;27;20259;-78
2022/06/12 08:42:08;;;;;;;;;;;29.00;99.90;;;;;;5152939;27;19926;-77
2022/06/12 08:44:43;;;;;;;;;;;29.50;99.90;;;;;;5153153;27;19945;-77
2022/06/12 08:47:16;;;;;;;;;;;30.10;99.90;;;;;;5153074;27;19919;-77
2022/06/12 08:50:14;;;;;;;;;;;30.00;99.90;;;;;;5135680;27;20258;-77
2022/06/12 08:52:46;;;;;;;;;;;30.20;99.90;;;;;;5087666;27;19920;-76
2022/06/12 08:55:17;;;;;;;;;;;30.50;99.90;;;;;;5144872;27;19926;-76
2022/06/12 08:57:55;;;;;;;;;;;30.40;99.90;;;;;;5135826;27;19963;-77
2022/06/12 09:00:22;;;;;;;;;;;29.40;99.90;;;;;;5151997;27;19967;-77
2022/06/12 09:02:48;;;;;;;;;;;30.20;99.90;;;;;;5136111;27;19918;-76
2022/06/12 09:05:17;;;;;;;;;;;30.90;99.90;;;;;;5146074;27;19919;-79
2022/06/12 09:07:45;;;;;;;;;;;29.90;99.90;;;;;;5153923;27;19931;-78
2022/06/12 09:10:10;;;;;;;;;;;29.70;99.90;;;;;;5153533;27;19979;-77
2022/06/12 09:12:43;;;;;;;;;;;29.10;99.90;;;;;;5151040;27;19926;-79
2022/06/12 09:15:14;;;;;;;;;;;28.30;99.90;;;;;;5133421;27;19984;-77
2022/06/12 09:17:53;;;;;;;;;;;27.00;99.90;;;;;;5133289;27;19923;-77
2022/06/12 09:20:37;;;;;;;;;;;27.30;99.90;;;;;;5127541;27;19919;-77
2022/06/12 09:23:06;;;;;;;;;;;27.10;99.90;;;;;;5132941;27;19934;-78
2022/06/12 09:25:37;;;;;;;;;;;27.40;99.90;;;;;;5128250;27;19929;-78
2022/06/12 09:28:09;;;;;;;;;;;26.70;99.90;;;;;;5133372;27;20377;-78
2022/06/12 09:30:41;;;;;;;;;;;26.10;99.90;;;;;;5132676;27;19987;-77
2022/06/12 09:33:25;;;;;;;;;;;26.10;99.90;;;;;;5142769;27;19923;-78
2022/06/12 09:36:11;;;;;;;;;;;26.10;99.90;;;;;;5139792;27;19926;-77
2022/06/12 09:38:37;;;;;;;;;;;26.60;99.90;;;;;;5093400;27;19919;-77
2022/06/12 09:41:07;;;;;;;;;;;26.40;99.90;;;;;;5133417;27;20059;-78
2022/06/12 09:43:33;;;;;;;;;;;26.80;99.90;;;;;;5149462;27;19991;-78
2022/06/12 09:46:00;;;;;;;;;;;27.00;99.90;;;;;;5153087;27;19974;-77
2022/06/12 09:48:29;;;;;;;;;;;26.10;99.90;;;;;;5153709;27;19922;-77
2022/06/12 09:51:09;;;;;;;;;;;26.30;99.90;;;;;;5132571;27;19927;-78
2022/06/12 09:53:44;;;;;;;;;;;26.20;99.90;;;;;;5147147;27;19965;-78
2022/06/12 09:56:13;;;;;;;;;;;25.90;99.90;;;;;;5152818;27;19919;-78
2022/06/12 09:59:04;;;;;;;;;;;25.80;99.90;;;;;;5153337;27;19926;-78
2022/06/12 10:01:33;;;;;;;;;;;25.50;99.90;;;;;;5128413;27;20356;-78
2022/06/12 10:04:00;;;;;;;;;;;24.90;99.90;;;;;;5143704;27;20014;-77
2022/06/12 10:06:30;;;;;;;;;;;24.50;99.90;;;;;;5132466;27;20331;-77
2022/06/12 10:08:59;;;;;;;;;;;24.50;99.90;;;;;;5150865;27;19964;-78
2022/06/12 10:11:35;;;;;;;;;;;25.70;99.90;;;;;;5150251;27;20006;-78
2022/06/12 10:14:09;;;;;;;;;;;27.40;99.90;;;;;;5151412;27;19923;-78
2022/06/12 10:16:41;;;;;;;;;;;28.90;99.90;;;;;;5153051;27;20451;-78
2022/06/12 10:19:10;;;;;;;;;;;29.70;99.90;;;;;;5135336;27;20294;-78
2022/06/12 10:21:38;;;;;;;;;;;30.20;99.90;;;;;;5149228;27;19980;-77
2022/06/12 10:24:03;;;;;;;;;;;30.60;99.90;;;;;;5116077;27;19919;-77
2022/06/12 10:26:30;;;;;;;;;;;31.00;99.90;;;;;;5131498;27;19926;-78
2022/06/12 10:29:07;;;;;;;;;;;31.50;99.90;;;;;;5132334;28;19934;-78
2022/06/12 10:31:34;;;;;;;;;;;31.60;99.90;;;;;;5132300;28;19946;-78
2022/06/12 10:34:14;;;;;;;;;;;32.70;99.90;;;;;;5114275;27;19920;-77
2022/06/12 10:36:40;;;;;;;;;;;32.20;99.90;;;;;;5138032;27;19920;-78
2022/06/12 10:39:05;;;;;;;;;;;32.90;99.90;;;;;;5132178;27;19927;-78
2022/06/12 10:41:31;;;;;;;;;;;33.50;99.90;;;;;;5137655;27;19973;-79
2022/06/12 10:43:57;;;;;;;;;;;33.20;99.90;;;;;;5122352;27;19954;-78
2022/06/12 10:46:27;;;;;;;;;;;33.70;99.90;;;;;;5140186;27;19972;-78
2022/06/12 10:49:04;;;;;;;;;;;34.00;99.90;;;;;;5142195;27;19985;-78
2022/06/12 10:51:35;;;;;;;;;;;33.60;99.90;;;;;;5138890;27;19919;-78
2022/06/12 10:54:07;;;;;;;;;;;34.20;99.90;;;;;;5145322;27;19926;-78
2022/06/12 10:56:33;;;;;;;;;;;33.70;99.90;;;;;;5145894;27;19927;-78
2022/06/12 10:58:58;;;;;;;;;;;33.20;99.90;;;;;;5151742;27;19919;-82
2022/06/12 11:01:24;;;;;;;;;;;33.00;99.90;;;;;;5146705;27;19920;-77
2022/06/12 11:04:01;;;;;;;;;;;32.00;99.90;;;;;;5152017;27;19923;-77
2022/06/12 11:06:40;;;;;;;;;;;32.00;99.90;;;;;;5155455;27;20009;-78
2022/06/12 11:09:24;;;;;;;;;;;32.40;99.90;;;;;;5141629;27;19923;-81
2022/06/12 11:12:08;;;;;;;;;;;33.00;99.90;;;;;;5137619;27;19966;-83
2022/06/12 11:14:45;;;;;;;;;;;33.90;99.90;;;;;;5158620;27;20256;-77
2022/06/12 11:17:17;;;;;;;;;;;34.20;99.90;;;;;;5132168;27;20321;-81
2022/06/12 11:19:46;;;;;;;;;;;33.50;99.90;;;;;;5153180;27;19995;-78
2022/06/12 11:22:18;;;;;;;;;;;32.40;99.90;;;;;;5106519;27;19922;-78
2022/06/12 11:24:58;;;;;;;;;;;32.10;99.90;;;;;;5145721;27;20325;-84
2022/06/12 11:27:44;;;;;;;;;;;31.30;99.90;;;;;;5151886;27;19919;-78
2022/06/12 11:30:13;;;;;;;;;;;31.10;99.90;;;;;;5143825;27;20116;-79
2022/06/12 11:32:41;;;;;;;;;;;32.10;99.90;;;;;;5142418;27;19919;-78
2022/06/12 11:35:15;;;;;;;;;;;32.30;99.90;;;;;;5143740;27;19923;-80
2022/06/12 11:37:50;;;;;;;;;;;32.50;99.90;;;;;;5135895;27;19924;-79
2022/06/12 11:40:33;;;;;;;;;;;32.70;99.90;;;;;;5135751;27;19923;-78
2022/06/12 11:43:08;;;;;;;;;;;33.10;99.90;;;;;;5139557;27;19926;-79
2022/06/12 11:46:03;;;;;;;;;;;33.40;99.90;;;;;;5115491;27;19926;-81
2022/06/12 11:48:31;;;;;;;;;;;32.80;99.90;;;;;;5135488;27;19959;-77
2022/06/12 11:51:02;;;;;;;;;;;33.00;99.90;;;;;;5152558;27;19918;-79
2022/06/12 11:53:47;;;;;;;;;;;33.10;99.90;;;;;;5142734;27;19919;-79
2022/06/12 11:56:24;;;;;;;;;;;33.70;99.90;;;;;;5132750;27;19929;-78
2022/06/12 11:58:53;;;;;;;;;;;33.20;99.90;;;;;;5147008;27;19966;-77
2022/06/12 12:01:21;;;;;;;;;;;32.80;99.90;;;;;;5147112;27;19919;-78
2022/06/12 12:03:56;;;;;;;;;;;32.80;99.90;;;;;;5124693;27;20394;-80
2022/06/12 12:06:41;;;;;;;;;;;32.70;99.90;;;;;;5141948;27;19925;-81
2022/06/12 12:09:17;;;;;;;;;;;32.50;99.90;;;;;;5140438;27;19930;-77
2022/06/12 12:11:45;;;;;;;;;;;32.50;99.90;;;;;;5150246;27;20010;-83
2022/06/12 12:14:16;;;;;;;;;;;31.80;99.90;;;;;;5135157;27;20372;-78
2022/06/12 12:16:51;;;;;;;;;;;32.80;99.90;;;;;;5137164;27;19920;-78
2022/06/12 12:19:23;;;;;;;;;;;32.30;99.90;;;;;;5124948;27;19923;-77
2022/06/12 12:21:54;;;;;;;;;;;31.20;99.90;;;;;;5143870;27;20347;-80
2022/06/12 12:24:25;;;;;;;;;;;29.90;99.90;;;;;;5131941;27;20023;-78
2022/06/12 12:26:52;;;;;;;;;;;29.30;99.90;;;;;;5139984;27;20332;-81
2022/06/12 12:29:23;;;;;;;;;;;28.60;99.90;;;;;;5128066;27;20242;-77
2022/06/12 12:31:49;;;;;;;;;;;28.00;99.90;;;;;;5139794;27;20175;-79
2022/06/12 12:34:16;;;;;;;;;;;27.70;99.90;;;;;;5143428;27;20367;-79
2022/06/12 12:42:23;;;;;;;;;;;26.70;99.90;;;;;;5119024;27;20009;-79
2022/06/12 12:44:50;;;;;;;;;;;26.50;99.90;;;;;;5140220;27;19923;-79
2022/06/12 12:47:17;;;;;;;;;;;26.50;99.90;;;;;;5152198;27;19979;-80
2022/06/12 12:49:43;;;;;;;;;;;26.70;99.90;;;;;;5135944;27;19931;-80
2022/06/12 12:52:10;;;;;;;;;;;26.60;99.90;;;;;;5137014;27;19920;-77
2022/06/12 12:54:41;;;;;;;;;;;26.30;99.90;;;;;;5150432;27;19972;-80
2022/06/12 12:57:07;;;;;;;;;;;26.10;99.90;;;;;;5153495;27;20382;-78
2022/06/12 12:59:38;;;;;;;;;;;25.80;99.90;;;;;;5122147;27;19916;-78
2022/06/12 13:02:24;;;;;;;;;;;25.50;99.90;;;;;;5152906;27;19927;-78
2022/06/12 13:04:51;;;;;;;;;;;25.00;99.90;;;;;;5149467;27;19931;-78
2022/06/12 13:07:17;;;;;;;;;;;24.80;99.90;;;;;;5120857;27;20316;-78
2022/06/12 13:10:01;;;;;;;;;;;24.70;99.90;;;;;;5144000;27;19919;-79
2022/06/12 13:12:29;;;;;;;;;;;24.80;99.90;;;;;;5134180;27;19980;-77
2022/06/12 13:14:58;;;;;;;;;;;24.80;99.90;;;;;;5141778;27;19919;-78
2022/06/12 13:17:42;;;;;;;;;;;24.60;99.90;;;;;;5145562;27;20041;-79
2022/06/12 13:20:16;;;;;;;;;;;24.40;99.90;;;;;;5144396;27;19924;-78
2022/06/12 13:22:42;;;;;;;;;;;24.30;99.90;;;;;;5149741;27;19923;-78
2022/06/12 13:25:09;;;;;;;;;;;24.20;99.90;;;;;;5149639;27;20415;-78
2022/06/12 13:27:47;;;;;;;;;;;24.10;99.90;;;;;;5148178;27;19919;-78
2022/06/12 13:30:20;;;;;;;;;;;24.20;99.90;;;;;;5144532;27;19972;-78
2022/06/12 13:32:46;;;;;;;;;;;24.10;99.90;;;;;;5130654;27;19949;-77
2022/06/12 13:35:29;;;;;;;;;;;24.20;99.90;;;;;;5131138;27;19945;-80
2022/06/12 13:38:02;;;;;;;;;;;24.20;99.90;;;;;;5117740;27;19915;-75
2022/06/12 13:40:31;;;;;;;;;;;24.10;99.90;;;;;;5142593;27;19919;-77
2022/06/12 13:43:10;;;;;;;;;;;24.00;99.90;;;;;;5146362;27;19923;-78
2022/06/12 13:45:35;;;;;;;;;;;24.10;99.90;;;;;;5142976;27;20065;-77
2022/06/12 13:48:11;;;;;;;;;;;24.60;99.90;;;;;;5143178;27;20426;-77
2022/06/12 13:50:38;;;;;;;;;;;24.10;99.90;;;;;;5142694;27;19930;-78
2022/06/12 13:53:08;;;;;;;;;;;24.30;99.90;;;;;;5145299;27;19919;-77
2022/06/12 13:55:42;;;;;;;;;;;24.30;99.90;;;;;;5151919;27;20440;-78
2022/06/12 13:58:27;;;;;;;;;;;24.10;99.90;;;;;;5153909;27;19923;-78
2022/06/12 14:00:54;;;;;;;;;;;23.80;99.90;;;;;;5151990;27;19919;-77
2022/06/12 14:03:20;;;;;;;;;;;23.80;99.90;;;;;;5153489;27;19919;-77
2022/06/12 14:05:49;;;;;;;;;;;24.00;99.90;;;;;;5151883;27;19923;-77
2022/06/12 14:08:15;;;;;;;;;;;23.90;99.90;;;;;;5153323;27;19926;-77
2022/06/12 14:10:42;;;;;;;;;;;23.70;99.90;;;;;;5151384;27;19919;-78
2022/06/12 14:13:13;;;;;;;;;;;23.70;99.90;;;;;;5153674;27;19924;-77
2022/06/12 14:15:40;;;;;;;;;;;23.70;99.90;;;;;;5153088;27;19918;-85
2022/06/12 14:18:07;;;;;;;;;;;23.90;99.90;;;;;;5133659;27;19924;-77
2022/06/12 14:20:34;;;;;;;;;;;23.90;99.90;;;;;;5145459;27;19941;-79
2022/06/12 14:23:01;;;;;;;;;;;24.20;99.90;;;;;;5132357;27;19926;-77
2022/06/12 14:25:34;;;;;;;;;;;24.10;99.90;;;;;;5130932;27;20033;-77
2022/06/12 14:28:26;;;;;;;;;;;23.80;99.90;;;;;;5135390;27;20080;-79
2022/06/12 14:31:21;;;;;;;;;;;23.80;99.90;;;;;;5133247;27;19989;-77
2022/06/12 14:34:04;;;;;;;;;;;23.80;99.90;;;;;;5118571;28;20018;-76
2022/06/12 14:36:35;;;;;;;;;;;23.70;99.90;;;;;;5131765;27;20407;-78
2022/06/12 14:39:11;;;;;;;;;;;23.60;99.90;;;;;;5117215;27;19920;-76
2022/06/12 14:41:45;;;;;;;;;;;23.50;99.90;;;;;;5150298;27;19926;-77
2022/06/12 14:44:10;;;;;;;;;;;23.80;99.90;;;;;;5134568;27;19929;-77
2022/06/12 14:46:36;;;;;;;;;;;23.50;99.90;;;;;;5152736;27;19929;-77
2022/06/12 14:49:02;;;;;;;;;;;23.60;99.90;;;;;;5116994;27;19962;-77
2022/06/12 14:51:27;;;;;;;;;;;23.50;99.90;;;;;;5130774;27;20279;-78
2022/06/12 14:53:53;;;;;;;;;;;23.20;99.90;;;;;;5152423;27;20347;-77